sensor_id;sensor_type;location;lat;lon;timestamp;P1;durP1;ratioP1;P2;durP2;ratioP2
36457;SDS011;22480;50.546;12.292;2022-12-24T00:01:08;4.03;;;1.08;;
36457;SDS011;22480;50.546;12.292;2022-12-24T00:03:34;4.63;;;1.10;;
36457;SDS011;22480;50.546;12.292;2022-12-24T00:06:05;5.60;;;1.23;;
36457;SDS011;22480;50.546;12.292;2022-12-24T00:08:31;5.55;;;1.42;;
36457;SDS011;22480;50.546;12.292;2022-12-24T00:10:57;5.00;;;1.55;;
36457;SDS011;22480;50.546;12.292;2022-12-24T00:13:23;4.70;;;1.55;;
36457;SDS011;22480;50.546;12.292;2022-12-24T00:15:49;7.50;;;2.75;;
36457;SDS011;22480;50.546;12.292;2022-12-24T00:18:15;11.70;;;3.67;;
36457;SDS011;22480;50.546;12.292;2022-12-24T00:20:41;7.03;;;3.63;;
36457;SDS011;22480;50.546;12.292;2022-12-24T00:23:13;4.63;;;1.80;;
36457;SDS011;22480;50.546;12.292;2022-12-24T00:25:39;5.28;;;2.15;;
36457;SDS011;22480;50.546;12.292;2022-12-24T00:28:05;6.57;;;2.97;;
36457;SDS011;22480;50.546;12.292;2022-12-24T00:30:30;4.65;;;1.45;;
36457;SDS011;22480;50.546;12.292;2022-12-24T00:32:56;6.05;;;2.20;;
36457;SDS011;22480;50.546;12.292;2022-12-24T00:35:22;2.67;;;1.38;;
36457;SDS011;22480;50.546;12.292;2022-12-24T00:37:48;9.02;;;1.77;;
36457;SDS011;22480;50.546;12.292;2022-12-24T00:40:15;7.15;;;1.90;;
36457;SDS011;22480;50.546;12.292;2022-12-24T00:42:41;3.70;;;1.27;;
36457;SDS011;22480;50.546;12.292;2022-12-24T00:45:07;5.78;;;1.35;;
36457;SDS011;22480;50.546;12.292;2022-12-24T00:47:34;5.57;;;1.20;;
36457;SDS011;22480;50.546;12.292;2022-12-24T00:50:00;4.07;;;1.13;;
36457;SDS011;22480;50.546;12.292;2022-12-24T00:52:26;4.00;;;1.05;;
36457;SDS011;22480;50.546;12.292;2022-12-24T00:54:52;1.88;;;1.15;;
36457;SDS011;22480;50.546;12.292;2022-12-24T00:57:17;3.05;;;1.02;;
36457;SDS011;22480;50.546;12.292;2022-12-24T00:59:43;2.78;;;0.95;;
36457;SDS011;22480;50.546;12.292;2022-12-24T01:02:09;2.63;;;0.73;;
36457;SDS011;22480;50.546;12.292;2022-12-24T01:04:35;1.95;;;1.00;;
36457;SDS011;22480;50.546;12.292;2022-12-24T01:07:19;6.18;;;2.28;;
36457;SDS011;22480;50.546;12.292;2022-12-24T01:09:45;4.78;;;1.33;;
36457;SDS011;22480;50.546;12.292;2022-12-24T01:12:11;3.83;;;1.40;;
36457;SDS011;22480;50.546;12.292;2022-12-24T01:14:36;4.50;;;1.52;;
36457;SDS011;22480;50.546;12.292;2022-12-24T01:17:02;4.10;;;1.10;;
36457;SDS011;22480;50.546;12.292;2022-12-24T01:19:28;5.40;;;1.40;;
36457;SDS011;22480;50.546;12.292;2022-12-24T01:21:54;5.05;;;1.10;;
36457;SDS011;22480;50.546;12.292;2022-12-24T01:24:19;7.68;;;1.50;;
36457;SDS011;22480;50.546;12.292;2022-12-24T01:26:45;6.13;;;1.23;;
36457;SDS011;22480;50.546;12.292;2022-12-24T01:29:11;3.63;;;1.15;;
36457;SDS011;22480;50.546;12.292;2022-12-24T01:31:37;6.68;;;1.25;;
36457;SDS011;22480;50.546;12.292;2022-12-24T01:34:03;6.90;;;1.50;;
36457;SDS011;22480;50.546;12.292;2022-12-24T01:36:28;7.15;;;1.90;;
36457;SDS011;22480;50.546;12.292;2022-12-24T01:38:54;7.45;;;1.52;;
36457;SDS011;22480;50.546;12.292;2022-12-24T01:41:21;4.75;;;1.40;;
36457;SDS011;22480;50.546;12.292;2022-12-24T01:44:22;7.25;;;2.30;;
36457;SDS011;22480;50.546;12.292;2022-12-24T01:47:06;4.68;;;1.23;;
36457;SDS011;22480;50.546;12.292;2022-12-24T01:49:33;5.95;;;1.55;;
36457;SDS011;22480;50.546;12.292;2022-12-24T01:52:06;6.00;;;1.27;;
36457;SDS011;22480;50.546;12.292;2022-12-24T01:54:49;5.65;;;1.45;;
36457;SDS011;22480;50.546;12.292;2022-12-24T01:57:21;8.13;;;1.60;;
36457;SDS011;22480;50.546;12.292;2022-12-24T01:59:57;7.20;;;1.70;;
36457;SDS011;22480;50.546;12.292;2022-12-24T02:02:26;7.18;;;1.13;;
36457;SDS011;22480;50.546;12.292;2022-12-24T02:07:59;10.30;;;1.50;;
36457;SDS011;22480;50.546;12.292;2022-12-24T02:10:27;5.60;;;1.20;;
36457;SDS011;22480;50.546;12.292;2022-12-24T02:12:53;8.10;;;1.88;;
36457;SDS011;22480;50.546;12.292;2022-12-24T02:15:20;5.47;;;1.73;;
36457;SDS011;22480;50.546;12.292;2022-12-24T02:17:50;10.48;;;2.35;;
36457;SDS011;22480;50.546;12.292;2022-12-24T02:31:55;5.00;;;1.92;;
36457;SDS011;22480;50.546;12.292;2022-12-24T02:34:08;8.02;;;2.08;;
36457;SDS011;22480;50.546;12.292;2022-12-24T02:36:41;10.25;;;2.78;;
36457;SDS011;22480;50.546;12.292;2022-12-24T02:39:23;5.57;;;1.20;;
36457;SDS011;22480;50.546;12.292;2022-12-24T02:41:57;6.10;;;1.40;;
36457;SDS011;22480;50.546;12.292;2022-12-24T02:44:30;9.25;;;2.53;;
36457;SDS011;22480;50.546;12.292;2022-12-24T02:47:07;10.40;;;1.90;;
36457;SDS011;22480;50.546;12.292;2022-12-24T02:49:35;8.15;;;2.42;;
36457;SDS011;22480;50.546;12.292;2022-12-24T02:52:01;6.22;;;1.40;;
36457;SDS011;22480;50.546;12.292;2022-12-24T02:54:27;5.85;;;1.52;;
36457;SDS011;22480;50.546;12.292;2022-12-24T02:56:58;7.40;;;1.77;;
36457;SDS011;22480;50.546;12.292;2022-12-24T03:13:25;12.13;;;2.67;;
36457;SDS011;22480;50.546;12.292;2022-12-24T03:15:51;8.82;;;2.85;;
36457;SDS011;22480;50.546;12.292;2022-12-24T03:18:19;6.97;;;2.17;;
36457;SDS011;22480;50.546;12.292;2022-12-24T03:20:49;8.95;;;1.58;;
36457;SDS011;22480;50.546;12.292;2022-12-24T03:23:25;3.85;;;1.40;;
36457;SDS011;22480;50.546;12.292;2022-12-24T03:25:51;6.75;;;1.38;;
36457;SDS011;22480;50.546;12.292;2022-12-24T03:28:17;7.18;;;1.45;;
36457;SDS011;22480;50.546;12.292;2022-12-24T03:30:48;7.05;;;1.30;;
36457;SDS011;22480;50.546;12.292;2022-12-24T03:33:15;9.60;;;1.67;;
36457;SDS011;22480;50.546;12.292;2022-12-24T03:35:41;5.70;;;1.30;;
36457;SDS011;22480;50.546;12.292;2022-12-24T03:38:06;9.73;;;2.15;;
36457;SDS011;22480;50.546;12.292;2022-12-24T03:40:32;11.00;;;1.48;;
36457;SDS011;22480;50.546;12.292;2022-12-24T03:42:58;7.55;;;1.65;;
36457;SDS011;22480;50.546;12.292;2022-12-24T03:45:23;6.07;;;1.50;;
36457;SDS011;22480;50.546;12.292;2022-12-24T03:47:49;5.93;;;1.90;;
36457;SDS011;22480;50.546;12.292;2022-12-24T03:50:15;8.25;;;1.80;;
36457;SDS011;22480;50.546;12.292;2022-12-24T03:52:41;8.75;;;1.55;;
36457;SDS011;22480;50.546;12.292;2022-12-24T03:55:06;5.85;;;1.70;;
36457;SDS011;22480;50.546;12.292;2022-12-24T03:57:32;13.82;;;3.20;;
36457;SDS011;22480;50.546;12.292;2022-12-24T03:59:58;6.05;;;1.63;;
36457;SDS011;22480;50.546;12.292;2022-12-24T04:02:24;9.13;;;1.75;;
36457;SDS011;22480;50.546;12.292;2022-12-24T04:04:49;6.65;;;1.33;;
36457;SDS011;22480;50.546;12.292;2022-12-24T04:07:15;11.32;;;2.42;;
36457;SDS011;22480;50.546;12.292;2022-12-24T04:09:41;6.07;;;1.98;;
36457;SDS011;22480;50.546;12.292;2022-12-24T04:12:07;8.57;;;1.60;;
36457;SDS011;22480;50.546;12.292;2022-12-24T04:14:33;7.53;;;1.98;;
36457;SDS011;22480;50.546;12.292;2022-12-24T04:16:58;4.47;;;1.50;;
36457;SDS011;22480;50.546;12.292;2022-12-24T04:19:24;8.50;;;1.88;;
36457;SDS011;22480;50.546;12.292;2022-12-24T04:21:50;8.52;;;1.33;;
36457;SDS011;22480;50.546;12.292;2022-12-24T04:24:15;12.02;;;1.75;;
36457;SDS011;22480;50.546;12.292;2022-12-24T04:26:41;8.18;;;1.52;;
36457;SDS011;22480;50.546;12.292;2022-12-24T04:29:07;6.15;;;1.77;;
36457;SDS011;22480;50.546;12.292;2022-12-24T04:31:32;10.27;;;1.95;;
36457;SDS011;22480;50.546;12.292;2022-12-24T04:33:58;11.93;;;2.95;;
36457;SDS011;22480;50.546;12.292;2022-12-24T04:36:24;5.50;;;1.75;;
36457;SDS011;22480;50.546;12.292;2022-12-24T04:38:49;7.68;;;2.05;;
36457;SDS011;22480;50.546;12.292;2022-12-24T04:41:16;6.70;;;1.70;;
36457;SDS011;22480;50.546;12.292;2022-12-24T04:43:43;10.30;;;1.98;;
36457;SDS011;22480;50.546;12.292;2022-12-24T04:46:11;7.40;;;2.25;;
36457;SDS011;22480;50.546;12.292;2022-12-24T04:48:47;7.68;;;1.75;;
36457;SDS011;22480;50.546;12.292;2022-12-24T04:51:14;11.20;;;1.67;;
36457;SDS011;22480;50.546;12.292;2022-12-24T04:53:41;9.45;;;2.53;;
36457;SDS011;22480;50.546;12.292;2022-12-24T04:56:15;8.98;;;3.05;;
36457;SDS011;22480;50.546;12.292;2022-12-24T04:58:43;7.00;;;2.03;;
36457;SDS011;22480;50.546;12.292;2022-12-24T05:01:13;3.15;;;1.50;;
36457;SDS011;22480;50.546;12.292;2022-12-24T05:03:42;12.88;;;3.50;;
36457;SDS011;22480;50.546;12.292;2022-12-24T05:06:09;8.43;;;2.10;;
36457;SDS011;22480;50.546;12.292;2022-12-24T05:08:37;6.35;;;1.85;;
36457;SDS011;22480;50.546;12.292;2022-12-24T05:11:04;10.75;;;1.80;;
36457;SDS011;22480;50.546;12.292;2022-12-24T05:13:30;4.85;;;1.00;;
36457;SDS011;22480;50.546;12.292;2022-12-24T05:15:56;9.38;;;2.20;;
36457;SDS011;22480;50.546;12.292;2022-12-24T05:18:22;9.95;;;1.80;;
36457;SDS011;22480;50.546;12.292;2022-12-24T05:20:48;9.98;;;2.03;;
36457;SDS011;22480;50.546;12.292;2022-12-24T05:23:14;6.90;;;1.65;;
36457;SDS011;22480;50.546;12.292;2022-12-24T05:26:00;9.70;;;2.30;;
36457;SDS011;22480;50.546;12.292;2022-12-24T05:28:44;11.73;;;2.60;;
36457;SDS011;22480;50.546;12.292;2022-12-24T05:31:10;12.60;;;2.85;;
36457;SDS011;22480;50.546;12.292;2022-12-24T05:33:36;11.05;;;2.05;;
36457;SDS011;22480;50.546;12.292;2022-12-24T05:36:02;8.93;;;1.95;;
36457;SDS011;22480;50.546;12.292;2022-12-24T05:38:27;14.70;;;2.45;;
36457;SDS011;22480;50.546;12.292;2022-12-24T05:40:53;6.35;;;2.28;;
36457;SDS011;22480;50.546;12.292;2022-12-24T05:43:19;7.28;;;2.78;;
36457;SDS011;22480;50.546;12.292;2022-12-24T05:45:44;6.32;;;1.88;;
36457;SDS011;22480;50.546;12.292;2022-12-24T05:48:10;6.78;;;1.73;;
36457;SDS011;22480;50.546;12.292;2022-12-24T05:50:37;8.98;;;2.10;;
36457;SDS011;22480;50.546;12.292;2022-12-24T05:53:04;9.73;;;1.58;;
36457;SDS011;22480;50.546;12.292;2022-12-24T05:55:30;12.93;;;1.75;;
36457;SDS011;22480;50.546;12.292;2022-12-24T05:57:55;8.38;;;1.77;;
36457;SDS011;22480;50.546;12.292;2022-12-24T06:00:21;8.38;;;1.90;;
36457;SDS011;22480;50.546;12.292;2022-12-24T06:02:47;10.07;;;2.13;;
36457;SDS011;22480;50.546;12.292;2022-12-24T06:05:12;9.27;;;3.40;;
36457;SDS011;22480;50.546;12.292;2022-12-24T06:07:38;7.47;;;2.70;;
36457;SDS011;22480;50.546;12.292;2022-12-24T06:10:04;8.85;;;2.20;;
36457;SDS011;22480;50.546;12.292;2022-12-24T06:12:31;15.75;;;3.20;;
36457;SDS011;22480;50.546;12.292;2022-12-24T06:14:57;10.38;;;1.83;;
36457;SDS011;22480;50.546;12.292;2022-12-24T06:17:22;11.60;;;2.58;;
36457;SDS011;22480;50.546;12.292;2022-12-24T06:19:48;7.68;;;2.42;;
36457;SDS011;22480;50.546;12.292;2022-12-24T06:22:14;11.95;;;2.15;;
36457;SDS011;22480;50.546;12.292;2022-12-24T06:24:39;15.02;;;3.58;;
36457;SDS011;22480;50.546;12.292;2022-12-24T06:27:05;7.18;;;2.78;;
36457;SDS011;22480;50.546;12.292;2022-12-24T06:29:31;14.32;;;2.25;;
36457;SDS011;22480;50.546;12.292;2022-12-24T06:31:56;9.38;;;2.38;;
36457;SDS011;22480;50.546;12.292;2022-12-24T06:34:22;12.93;;;3.75;;
36457;SDS011;22480;50.546;12.292;2022-12-24T06:36:48;14.85;;;6.10;;
36457;SDS011;22480;50.546;12.292;2022-12-24T06:39:13;13.55;;;5.68;;
36457;SDS011;22480;50.546;12.292;2022-12-24T06:41:39;17.70;;;4.63;;
36457;SDS011;22480;50.546;12.292;2022-12-24T06:44:05;10.63;;;3.95;;
36457;SDS011;22480;50.546;12.292;2022-12-24T06:46:30;9.05;;;2.97;;
36457;SDS011;22480;50.546;12.292;2022-12-24T06:48:56;13.73;;;3.88;;
36457;SDS011;22480;50.546;12.292;2022-12-24T06:51:22;10.50;;;2.67;;
36457;SDS011;22480;50.546;12.292;2022-12-24T06:53:48;7.07;;;1.95;;
36457;SDS011;22480;50.546;12.292;2022-12-24T06:56:18;6.68;;;2.72;;
36457;SDS011;22480;50.546;12.292;2022-12-24T06:58:44;10.00;;;2.15;;
36457;SDS011;22480;50.546;12.292;2022-12-24T07:01:11;7.10;;;2.05;;
36457;SDS011;22480;50.546;12.292;2022-12-24T07:03:40;10.65;;;2.03;;
36457;SDS011;22480;50.546;12.292;2022-12-24T07:06:06;6.10;;;1.77;;
36457;SDS011;22480;50.546;12.292;2022-12-24T07:08:39;8.57;;;2.50;;
36457;SDS011;22480;50.546;12.292;2022-12-24T07:11:04;9.68;;;2.97;;
36457;SDS011;22480;50.546;12.292;2022-12-24T07:13:30;11.98;;;1.98;;
36457;SDS011;22480;50.546;12.292;2022-12-24T07:15:58;8.57;;;2.72;;
36457;SDS011;22480;50.546;12.292;2022-12-24T07:18:25;7.10;;;1.90;;
36457;SDS011;22480;50.546;12.292;2022-12-24T07:20:51;8.50;;;2.10;;
36457;SDS011;22480;50.546;12.292;2022-12-24T07:23:17;6.28;;;1.83;;
36457;SDS011;22480;50.546;12.292;2022-12-24T07:25:42;12.10;;;3.35;;
36457;SDS011;22480;50.546;12.292;2022-12-24T07:28:08;11.73;;;3.38;;
36457;SDS011;22480;50.546;12.292;2022-12-24T07:30:34;9.77;;;2.35;;
36457;SDS011;22480;50.546;12.292;2022-12-24T07:33:00;10.05;;;2.72;;
36457;SDS011;22480;50.546;12.292;2022-12-24T07:35:26;6.45;;;2.72;;
36457;SDS011;22480;50.546;12.292;2022-12-24T07:37:51;10.70;;;3.63;;
36457;SDS011;22480;50.546;12.292;2022-12-24T07:40:17;10.73;;;2.65;;
36457;SDS011;22480;50.546;12.292;2022-12-24T07:42:42;8.85;;;2.17;;
36457;SDS011;22480;50.546;12.292;2022-12-24T07:45:08;13.45;;;2.47;;
36457;SDS011;22480;50.546;12.292;2022-12-24T07:47:34;12.43;;;4.43;;
36457;SDS011;22480;50.546;12.292;2022-12-24T07:50:01;8.07;;;2.75;;
36457;SDS011;22480;50.546;12.292;2022-12-24T07:52:27;7.05;;;2.47;;
36457;SDS011;22480;50.546;12.292;2022-12-24T07:54:53;5.97;;;1.98;;
36457;SDS011;22480;50.546;12.292;2022-12-24T07:57:18;10.32;;;2.22;;
36457;SDS011;22480;50.546;12.292;2022-12-24T07:59:44;6.35;;;1.45;;
36457;SDS011;22480;50.546;12.292;2022-12-24T08:02:10;5.45;;;1.95;;
36457;SDS011;22480;50.546;12.292;2022-12-24T08:04:36;10.13;;;2.03;;
36457;SDS011;22480;50.546;12.292;2022-12-24T08:07:02;7.72;;;2.47;;
36457;SDS011;22480;50.546;12.292;2022-12-24T08:09:32;9.45;;;1.65;;
36457;SDS011;22480;50.546;12.292;2022-12-24T08:11:58;7.07;;;1.63;;
36457;SDS011;22480;50.546;12.292;2022-12-24T08:14:24;10.65;;;2.17;;
36457;SDS011;22480;50.546;12.292;2022-12-24T08:16:50;6.63;;;2.20;;
36457;SDS011;22480;50.546;12.292;2022-12-24T08:19:15;25.83;;;11.05;;
36457;SDS011;22480;50.546;12.292;2022-12-24T08:21:41;19.10;;;4.53;;
36457;SDS011;22480;50.546;12.292;2022-12-24T08:24:07;22.42;;;4.65;;
36457;SDS011;22480;50.546;12.292;2022-12-24T08:26:32;13.38;;;3.97;;
36457;SDS011;22480;50.546;12.292;2022-12-24T08:28:58;15.00;;;3.75;;
36457;SDS011;22480;50.546;12.292;2022-12-24T08:31:24;18.05;;;5.13;;
36457;SDS011;22480;50.546;12.292;2022-12-24T08:33:49;13.13;;;4.40;;
36457;SDS011;22480;50.546;12.292;2022-12-24T08:36:15;11.15;;;3.92;;
36457;SDS011;22480;50.546;12.292;2022-12-24T08:38:41;16.92;;;3.72;;
36457;SDS011;22480;50.546;12.292;2022-12-24T08:41:06;9.98;;;2.97;;
36457;SDS011;22480;50.546;12.292;2022-12-24T08:43:32;11.13;;;2.60;;
36457;SDS011;22480;50.546;12.292;2022-12-24T08:46:02;12.55;;;2.78;;
36457;SDS011;22480;50.546;12.292;2022-12-24T08:48:29;11.55;;;3.60;;
36457;SDS011;22480;50.546;12.292;2022-12-24T08:50:55;17.60;;;6.00;;
36457;SDS011;22480;50.546;12.292;2022-12-24T08:53:21;10.05;;;3.70;;
36457;SDS011;22480;50.546;12.292;2022-12-24T08:55:47;11.25;;;3.92;;
36457;SDS011;22480;50.546;12.292;2022-12-24T08:58:13;11.65;;;3.78;;
36457;SDS011;22480;50.546;12.292;2022-12-24T09:00:38;14.38;;;4.05;;
36457;SDS011;22480;50.546;12.292;2022-12-24T09:03:04;9.77;;;2.78;;
36457;SDS011;22480;50.546;12.292;2022-12-24T09:05:30;8.40;;;3.55;;
36457;SDS011;22480;50.546;12.292;2022-12-24T09:07:56;7.07;;;2.47;;
36457;SDS011;22480;50.546;12.292;2022-12-24T09:10:22;7.35;;;2.67;;
36457;SDS011;22480;50.546;12.292;2022-12-24T09:12:48;8.85;;;2.42;;
36457;SDS011;22480;50.546;12.292;2022-12-24T09:15:14;13.13;;;3.03;;
36457;SDS011;22480;50.546;12.292;2022-12-24T09:17:40;11.90;;;3.67;;
36457;SDS011;22480;50.546;12.292;2022-12-24T09:20:06;11.23;;;3.63;;
36457;SDS011;22480;50.546;12.292;2022-12-24T09:22:33;14.35;;;3.35;;
36457;SDS011;22480;50.546;12.292;2022-12-24T09:25:01;9.45;;;3.00;;
36457;SDS011;22480;50.546;12.292;2022-12-24T09:27:29;9.52;;;3.92;;
36457;SDS011;22480;50.546;12.292;2022-12-24T09:29:55;12.43;;;3.13;;
36457;SDS011;22480;50.546;12.292;2022-12-24T09:32:21;10.70;;;2.70;;
36457;SDS011;22480;50.546;12.292;2022-12-24T09:34:47;11.27;;;2.47;;
36457;SDS011;22480;50.546;12.292;2022-12-24T09:37:12;11.13;;;3.28;;
36457;SDS011;22480;50.546;12.292;2022-12-24T09:39:38;12.98;;;2.92;;
36457;SDS011;22480;50.546;12.292;2022-12-24T09:44:43;10.05;;;2.08;;
36457;SDS011;22480;50.546;12.292;2022-12-24T09:47:38;4.30;;;1.70;;
36457;SDS011;22480;50.546;12.292;2022-12-24T09:52:50;7.82;;;2.55;;
36457;SDS011;22480;50.546;12.292;2022-12-24T09:55:31;9.00;;;3.35;;
36457;SDS011;22480;50.546;12.292;2022-12-24T09:58:01;13.55;;;2.17;;
36457;SDS011;22480;50.546;12.292;2022-12-24T10:00:31;7.32;;;3.22;;
36457;SDS011;22480;50.546;12.292;2022-12-24T10:03:00;12.40;;;3.40;;
36457;SDS011;22480;50.546;12.292;2022-12-24T10:05:37;7.95;;;3.58;;
36457;SDS011;22480;50.546;12.292;2022-12-24T10:08:30;10.40;;;3.88;;
36457;SDS011;22480;50.546;12.292;2022-12-24T10:11:16;6.65;;;2.53;;
36457;SDS011;22480;50.546;12.292;2022-12-24T10:22:14;4.50;;;1.70;;
36457;SDS011;22480;50.546;12.292;2022-12-24T10:25:17;8.70;;;2.08;;
36457;SDS011;22480;50.546;12.292;2022-12-24T10:27:50;6.50;;;2.20;;
36457;SDS011;22480;50.546;12.292;2022-12-24T10:30:19;9.45;;;2.47;;
36457;SDS011;22480;50.546;12.292;2022-12-24T10:32:47;6.80;;;2.10;;
36457;SDS011;22480;50.546;12.292;2022-12-24T10:35:18;6.47;;;1.98;;
36457;SDS011;22480;50.546;12.292;2022-12-24T10:37:48;7.97;;;1.98;;
36457;SDS011;22480;50.546;12.292;2022-12-24T10:40:57;7.15;;;1.80;;
36457;SDS011;22480;50.546;12.292;2022-12-24T10:43:13;11.88;;;5.53;;
36457;SDS011;22480;50.546;12.292;2022-12-24T10:45:45;8.95;;;4.05;;
36457;SDS011;22480;50.546;12.292;2022-12-24T10:48:24;8.93;;;1.90;;
36457;SDS011;22480;50.546;12.292;2022-12-24T10:53:33;5.80;;;2.10;;
36457;SDS011;22480;50.546;12.292;2022-12-24T10:56:03;7.35;;;1.92;;
36457;SDS011;22480;50.546;12.292;2022-12-24T10:58:31;6.18;;;1.80;;
36457;SDS011;22480;50.546;12.292;2022-12-24T11:00:58;4.85;;;1.70;;
36457;SDS011;22480;50.546;12.292;2022-12-24T11:03:27;7.25;;;2.10;;
36457;SDS011;22480;50.546;12.292;2022-12-24T11:08:26;6.15;;;1.60;;
36457;SDS011;22480;50.546;12.292;2022-12-24T11:10:56;6.57;;;1.73;;
36457;SDS011;22480;50.546;12.292;2022-12-24T11:18:49;6.85;;;2.20;;
36457;SDS011;22480;50.546;12.292;2022-12-24T11:21:32;6.65;;;2.53;;
36457;SDS011;22480;50.546;12.292;2022-12-24T11:26:28;8.15;;;2.03;;
36457;SDS011;22480;50.546;12.292;2022-12-24T11:31:51;5.53;;;2.42;;
36457;SDS011;22480;50.546;12.292;2022-12-24T11:34:41;6.93;;;2.28;;
36457;SDS011;22480;50.546;12.292;2022-12-24T11:37:15;5.85;;;2.75;;
36457;SDS011;22480;50.546;12.292;2022-12-24T11:39:52;8.48;;;2.70;;
36457;SDS011;22480;50.546;12.292;2022-12-24T11:44:58;9.00;;;2.55;;
36457;SDS011;22480;50.546;12.292;2022-12-24T11:47:33;8.85;;;1.98;;
36457;SDS011;22480;50.546;12.292;2022-12-24T11:53:11;10.32;;;2.63;;
36457;SDS011;22480;50.546;12.292;2022-12-24T11:55:49;8.07;;;2.42;;
36457;SDS011;22480;50.546;12.292;2022-12-24T11:58:27;10.00;;;2.50;;
36457;SDS011;22480;50.546;12.292;2022-12-24T12:06:22;19.73;;;7.38;;
36457;SDS011;22480;50.546;12.292;2022-12-24T12:09:00;9.38;;;3.20;;
36457;SDS011;22480;50.546;12.292;2022-12-24T12:11:31;8.57;;;4.07;;
36457;SDS011;22480;50.546;12.292;2022-12-24T12:13:59;11.27;;;4.30;;
36457;SDS011;22480;50.546;12.292;2022-12-24T12:16:29;10.52;;;3.05;;
36457;SDS011;22480;50.546;12.292;2022-12-24T12:19:23;9.63;;;1.90;;
36457;SDS011;22480;50.546;12.292;2022-12-24T12:21:50;6.32;;;2.05;;
36457;SDS011;22480;50.546;12.292;2022-12-24T12:24:26;9.48;;;2.03;;
36457;SDS011;22480;50.546;12.292;2022-12-24T12:27:02;6.30;;;1.92;;
36457;SDS011;22480;50.546;12.292;2022-12-24T12:29:35;10.85;;;2.90;;
36457;SDS011;22480;50.546;12.292;2022-12-24T12:32:13;4.88;;;1.65;;
36457;SDS011;22480;50.546;12.292;2022-12-24T12:37:42;6.63;;;2.63;;
36457;SDS011;22480;50.546;12.292;2022-12-24T12:40:13;10.55;;;2.20;;
36457;SDS011;22480;50.546;12.292;2022-12-24T12:42:40;7.70;;;3.33;;
36457;SDS011;22480;50.546;12.292;2022-12-24T12:45:25;11.68;;;4.20;;
36457;SDS011;22480;50.546;12.292;2022-12-24T12:48:34;6.57;;;2.45;;
36457;SDS011;22480;50.546;12.292;2022-12-24T13:07:00;10.50;;;3.95;;
36457;SDS011;22480;50.546;12.292;2022-12-24T13:21:16;13.75;;;5.43;;
36457;SDS011;22480;50.546;12.292;2022-12-24T13:23:45;14.38;;;6.10;;
36457;SDS011;22480;50.546;12.292;2022-12-24T13:26:12;9.32;;;2.80;;
36457;SDS011;22480;50.546;12.292;2022-12-24T13:28:39;7.93;;;2.28;;
36457;SDS011;22480;50.546;12.292;2022-12-24T13:36:11;9.43;;;4.18;;
36457;SDS011;22480;50.546;12.292;2022-12-24T13:39:02;10.98;;;3.90;;
36457;SDS011;22480;50.546;12.292;2022-12-24T13:49:32;11.38;;;4.47;;
36457;SDS011;22480;50.546;12.292;2022-12-24T13:54:58;7.27;;;3.23;;
36457;SDS011;22480;50.546;12.292;2022-12-24T13:59:56;4.63;;;1.30;;
36457;SDS011;22480;50.546;12.292;2022-12-24T14:02:25;2.97;;;1.48;;
36457;SDS011;22480;50.546;12.292;2022-12-24T14:04:53;2.75;;;1.50;;
36457;SDS011;22480;50.546;12.292;2022-12-24T14:07:25;4.63;;;1.63;;
36457;SDS011;22480;50.546;12.292;2022-12-24T14:09:51;3.67;;;1.33;;
36457;SDS011;22480;50.546;12.292;2022-12-24T14:12:31;3.72;;;1.48;;
36457;SDS011;22480;50.546;12.292;2022-12-24T14:18:16;5.63;;;1.50;;
36457;SDS011;22480;50.546;12.292;2022-12-24T14:20:50;4.20;;;2.10;;
36457;SDS011;22480;50.546;12.292;2022-12-24T14:26:00;6.93;;;3.13;;
36457;SDS011;22480;50.546;12.292;2022-12-24T14:28:39;7.80;;;2.47;;
36457;SDS011;22480;50.546;12.292;2022-12-24T14:31:16;5.13;;;1.50;;
36457;SDS011;22480;50.546;12.292;2022-12-24T14:33:42;4.50;;;2.10;;
36457;SDS011;22480;50.546;12.292;2022-12-24T14:36:09;5.88;;;2.13;;
36457;SDS011;22480;50.546;12.292;2022-12-24T14:38:38;7.47;;;3.20;;
36457;SDS011;22480;50.546;12.292;2022-12-24T14:44:15;8.23;;;4.07;;
36457;SDS011;22480;50.546;12.292;2022-12-24T14:46:56;5.38;;;2.28;;
36457;SDS011;22480;50.546;12.292;2022-12-24T14:49:51;6.20;;;2.72;;
36457;SDS011;22480;50.546;12.292;2022-12-24T14:52:38;6.80;;;2.70;;
36457;SDS011;22480;50.546;12.292;2022-12-24T14:55:29;12.57;;;4.63;;
36457;SDS011;22480;50.546;12.292;2022-12-24T15:00:41;8.73;;;4.53;;
36457;SDS011;22480;50.546;12.292;2022-12-24T15:03:11;14.75;;;8.25;;
36457;SDS011;22480;50.546;12.292;2022-12-24T15:05:38;14.40;;;4.97;;
36457;SDS011;22480;50.546;12.292;2022-12-24T15:08:47;18.92;;;5.85;;
36457;SDS011;22480;50.546;12.292;2022-12-24T15:11:02;13.23;;;5.38;;
36457;SDS011;22480;50.546;12.292;2022-12-24T15:13:36;13.95;;;4.15;;
36457;SDS011;22480;50.546;12.292;2022-12-24T15:16:07;20.80;;;6.20;;
36457;SDS011;22480;50.546;12.292;2022-12-24T15:18:35;12.60;;;5.30;;
36457;SDS011;22480;50.546;12.292;2022-12-24T15:21:20;13.93;;;5.43;;
36457;SDS011;22480;50.546;12.292;2022-12-24T15:23:52;13.95;;;4.25;;
36457;SDS011;22480;50.546;12.292;2022-12-24T15:26:22;10.35;;;4.60;;
36457;SDS011;22480;50.546;12.292;2022-12-24T15:31:15;17.30;;;4.80;;
36457;SDS011;22480;50.546;12.292;2022-12-24T15:33:44;16.47;;;4.50;;
36457;SDS011;22480;50.546;12.292;2022-12-24T15:36:11;15.27;;;3.92;;
36457;SDS011;22480;50.546;12.292;2022-12-24T15:38:38;16.55;;;5.50;;
36457;SDS011;22480;50.546;12.292;2022-12-24T15:41:14;14.20;;;5.25;;
36457;SDS011;22480;50.546;12.292;2022-12-24T15:43:46;14.00;;;4.38;;
36457;SDS011;22480;50.546;12.292;2022-12-24T15:46:17;13.63;;;4.15;;
36457;SDS011;22480;50.546;12.292;2022-12-24T15:48:48;15.38;;;5.43;;
36457;SDS011;22480;50.546;12.292;2022-12-24T15:51:20;16.02;;;5.18;;
36457;SDS011;22480;50.546;12.292;2022-12-24T15:54:03;18.70;;;5.38;;
36457;SDS011;22480;50.546;12.292;2022-12-24T15:56:35;17.77;;;5.07;;
36457;SDS011;22480;50.546;12.292;2022-12-24T15:59:11;22.63;;;7.82;;
36457;SDS011;22480;50.546;12.292;2022-12-24T16:01:43;14.35;;;7.38;;
36457;SDS011;22480;50.546;12.292;2022-12-24T16:04:16;18.55;;;8.90;;
36457;SDS011;22480;50.546;12.292;2022-12-24T16:12:37;23.40;;;7.40;;
36457;SDS011;22480;50.546;12.292;2022-12-24T16:15:03;18.42;;;5.43;;
36457;SDS011;22480;50.546;12.292;2022-12-24T16:17:30;16.92;;;5.10;;
36457;SDS011;22480;50.546;12.292;2022-12-24T16:20:02;16.50;;;4.70;;
36457;SDS011;22480;50.546;12.292;2022-12-24T16:22:31;14.82;;;4.97;;
36457;SDS011;22480;50.546;12.292;2022-12-24T16:27:51;16.58;;;6.10;;
36457;SDS011;22480;50.546;12.292;2022-12-24T16:30:17;20.90;;;5.35;;
36457;SDS011;22480;50.546;12.292;2022-12-24T16:32:44;24.50;;;5.78;;
36457;SDS011;22480;50.546;12.292;2022-12-24T16:35:27;18.23;;;5.38;;
36457;SDS011;22480;50.546;12.292;2022-12-24T16:38:00;18.85;;;5.10;;
36457;SDS011;22480;50.546;12.292;2022-12-24T16:40:27;18.38;;;4.75;;
36457;SDS011;22480;50.546;12.292;2022-12-24T16:42:57;19.77;;;6.22;;
36457;SDS011;22480;50.546;12.292;2022-12-24T16:45:41;21.08;;;7.53;;
36457;SDS011;22480;50.546;12.292;2022-12-24T16:48:10;13.52;;;3.60;;
36457;SDS011;22480;50.546;12.292;2022-12-24T16:50:43;9.00;;;3.15;;
36457;SDS011;22480;50.546;12.292;2022-12-24T16:53:15;9.45;;;2.38;;
36457;SDS011;22480;50.546;12.292;2022-12-24T16:55:42;11.40;;;4.22;;
36457;SDS011;22480;50.546;12.292;2022-12-24T16:58:11;6.72;;;2.03;;
36457;SDS011;22480;50.546;12.292;2022-12-24T17:00:37;7.90;;;2.17;;
36457;SDS011;22480;50.546;12.292;2022-12-24T17:03:04;10.82;;;1.75;;